Terminal Aerodrome Forecast
Issued by NWS

Home | Current Version | Previous Version | Text Only | Print | Product List | Glossary On
Versions: 1 2 3 4 5 6 7 8 9 10 11 12 13 14 15 16 17 18 19 20
000
FTUS41 KBTV 312300
TAFSLK
TAF
KSLK 312323Z 0100/0124 VRB03KT P6SM SKC
      TEMPO 0104/0106 1 1/2SM BR SCT001
     FM010600 00000KT 1/2SM FG VV001
     FM011200 00000KT P6SM SKC
     FM011500 22009KT P6SM SCT060=

USA.gov is the U.S. government's official web portal to all federal, state and local government web resources and services.